Rawalpindi Weather



Rawalpindi's Current Weather

Temprature 24.57o clear sky

clear sky

Rain: 0 %

Min Temprature24.57o
Max Temprature24.57o
Humidity50
Wind Speed2.68 m/h
Sun Rise05:02:03
Sun Set19:07:20
Current Time: 24-May-2022 08:54:40
Lat/Lon: 33.6007, 73.0679




Rawalpindi's Geo Location



Rawalpindi's Weather Forecast

Time Overall Temp Min Temp Max Temp Humidity Wind Speed Rain
24-May-2022 (Tue)
11:00:00 clear sky 26.300 26.300 29.770 42 3.37 m/h 0 %
14:00:00 clear sky 29.990 29.990 32.700 30 3.87 m/h 0 %
17:00:00 clear sky 32.640 32.640 32.640 20 3.16 m/h 0 %
20:00:00 clear sky 28.310 28.310 28.310 27 1.94 m/h 0 %
23:00:00 clear sky 26.080 26.080 26.080 31 0.48 m/h 0 %
25-May-2022 (Wed)
02:00:00 clear sky 24.690 24.690 24.690 33 1.63 m/h 0 %
05:00:00 clear sky 23.940 23.940 23.940 34 2.29 m/h 0 %
08:00:00 clear sky 30.050 30.050 30.050 23 0.91 m/h 0 %
11:00:00 clear sky 34.540 34.540 34.540 18 3.12 m/h 0 %
14:00:00 clear sky 36.880 36.880 36.880 15 2.65 m/h 0 %
17:00:00 clear sky 37.090 37.090 37.090 14 2.18 m/h 0 %
20:00:00 clear sky 32.110 32.110 32.110 19 0.75 m/h 0 %
23:00:00 clear sky 29.480 29.480 29.480 23 0.65 m/h 0 %
26-May-2022 (Thu)
02:00:00 clear sky 28.090 28.090 28.090 24 2.04 m/h 0 %
05:00:00 clear sky 26.780 26.780 26.780 27 2.47 m/h 0 %
08:00:00 clear sky 33.260 33.260 33.260 19 1.76 m/h 0 %
11:00:00 clear sky 37.750 37.750 37.750 14 3.05 m/h 0 %
14:00:00 clear sky 40.280 40.280 40.280 11 2.04 m/h 0 %
17:00:00 clear sky 40.520 40.520 40.520 10 3.01 m/h 0 %
20:00:00 clear sky 34.450 34.450 34.450 13 0.95 m/h 0 %
23:00:00 clear sky 31.530 31.530 31.530 18 1.01 m/h 0 %
27-May-2022 (Fri)
02:00:00 clear sky 30.060 30.060 30.060 21 3.02 m/h 0 %
05:00:00 clear sky 29.090 29.090 29.090 22 3.22 m/h 0 %
08:00:00 clear sky 35.620 35.620 35.620 15 2.13 m/h 0 %
11:00:00 clear sky 40.430 40.430 40.430 10 2.5 m/h 0 %
14:00:00 clear sky 42.580 42.580 42.580 9 2.3 m/h 0 %
17:00:00 clear sky 42.650 42.650 42.650 8 2.23 m/h 0 %
20:00:00 clear sky 36.630 36.630 36.630 12 1.34 m/h 0 %
23:00:00 clear sky 33.770 33.770 33.770 14 3.01 m/h 0 %
28-May-2022 (Sat)
02:00:00 clear sky 32.110 32.110 32.110 16 3.6 m/h 0 %
05:00:00 few clouds 29.800 29.800 29.800 19 3.37 m/h 0 %
08:00:00 clear sky 35.490 35.490 35.490 15 3.27 m/h 0 %
11:00:00 clear sky 41.270 41.270 41.270 11 3.51 m/h 0 %
14:00:00 clear sky 43.830 43.830 43.830 10 4.8 m/h 0 %
17:00:00 few clouds 37.540 37.540 37.540 19 6.62 m/h 0 %
20:00:00 light rain 34.210 34.210 34.210 24 5.94 m/h 48 %
23:00:00 broken clouds 30.260 30.260 30.260 31 4.48 m/h 0 %
29-May-2022 (Sun)
02:00:00 overcast clouds 29.050 29.050 29.050 32 3.91 m/h 0 %
05:00:00 broken clouds 27.720 27.720 27.720 34 2.09 m/h 0 %
08:00:00 broken clouds 34.100 34.100 34.100 21 1.58 m/h 0 %


Rawalpindi's Tourist Spots

Parks and Zoos in Rawalpindi

Famous Cities (61)